Nearby METAR Reports

 

ENRY - Rygge (nor-Afb), Norway
Distance from station: 0 24km
Updated: 25/05/2018 21:50
Clear
Clear
 Wind from W
Wind: W 4 km/h
Temperature: 22°C
Dew Point: 9°C
Humidity: 44%
Barometer: 1026 hPa
Clouds: Clear
Visibility: 16 miles
2018/05/25 19:50 ENRY 251950Z AUTO 26002KT 9999NDV NCD 22/09 Q1026
ENTO - Torp (civ/Nor-Af, Norway
Distance from station: W 29km
Updated: 25/05/2018 21:50
Clear
Clear
 Wind from W
Wind: W 7 km/h
Temperature: 22°C
Dew Point: 7°C
Humidity: 38%
Barometer: 1026 hPa
Summary: Clear
Visibility: greater than 10 km
2018/05/25 19:50 ENTO 251950Z 27004KT CAVOK 22/07 Q1026
 
ENSN - Skien/Geiterygge, Norway
Distance from station: W 68km
Updated: 09/11/2015 09:50
NOT Current
Clear
Clear
 Wind from SSW
Wind: SSW 19 km/h, Gust: 41 km/h
Temperature: 7°C
Wind Chill: 4°C
Dew Point: 3°C
Humidity: 76%
Barometer: 1000 hPa
Summary: Clear
Visibility: greater than 10 km
2015/11/09 08:50 ENSN 090850Z 20010G22KT 150V240 CAVOK 07/03 Q1000